sensor_id;sensor_type;location;lat;lon;timestamp;P1;durP1;ratioP1;P2;durP2;ratioP2
63902;SDS011;50072;50.678;13.938;2024-03-25T00:01:47;8.48;;;4.15;;
63902;SDS011;50072;50.678;13.938;2024-03-25T00:04:15;8.80;;;4.85;;
63902;SDS011;50072;50.678;13.938;2024-03-25T00:06:48;10.63;;;4.78;;
63902;SDS011;50072;50.678;13.938;2024-03-25T00:09:15;12.15;;;5.55;;
63902;SDS011;50072;50.678;13.938;2024-03-25T00:11:47;10.82;;;4.95;;
63902;SDS011;50072;50.678;13.938;2024-03-25T00:14:20;11.65;;;5.55;;
63902;SDS011;50072;50.678;13.938;2024-03-25T00:16:47;13.23;;;5.68;;
63902;SDS011;50072;50.678;13.938;2024-03-25T00:19:19;10.13;;;5.05;;
63902;SDS011;50072;50.678;13.938;2024-03-25T00:21:47;11.88;;;5.25;;
63902;SDS011;50072;50.678;13.938;2024-03-25T00:24:16;12.02;;;5.55;;
63902;SDS011;50072;50.678;13.938;2024-03-25T00:29:14;6.32;;;3.28;;
63902;SDS011;50072;50.678;13.938;2024-03-25T00:31:43;6.85;;;3.28;;
63902;SDS011;50072;50.678;13.938;2024-03-25T00:34:17;7.25;;;2.67;;
63902;SDS011;50072;50.678;13.938;2024-03-25T00:36:48;3.83;;;2.00;;
63902;SDS011;50072;50.678;13.938;2024-03-25T00:39:16;4.28;;;1.98;;
63902;SDS011;50072;50.678;13.938;2024-03-25T00:41:48;3.92;;;1.52;;
63902;SDS011;50072;50.678;13.938;2024-03-25T00:44:19;2.28;;;1.30;;
63902;SDS011;50072;50.678;13.938;2024-03-25T00:46:45;1.98;;;1.35;;
63902;SDS011;50072;50.678;13.938;2024-03-25T00:49:12;3.75;;;1.75;;
63902;SDS011;50072;50.678;13.938;2024-03-25T00:51:37;5.43;;;1.80;;
63902;SDS011;50072;50.678;13.938;2024-03-25T00:54:04;4.53;;;1.77;;
63902;SDS011;50072;50.678;13.938;2024-03-25T00:56:33;4.05;;;1.80;;
63902;SDS011;50072;50.678;13.938;2024-03-25T00:59:05;2.85;;;1.45;;
63902;SDS011;50072;50.678;13.938;2024-03-25T01:01:32;3.65;;;1.52;;
63902;SDS011;50072;50.678;13.938;2024-03-25T01:03:58;4.88;;;1.80;;
63902;SDS011;50072;50.678;13.938;2024-03-25T01:06:28;3.42;;;1.70;;
63902;SDS011;50072;50.678;13.938;2024-03-25T01:08:55;4.03;;;1.70;;
63902;SDS011;50072;50.678;13.938;2024-03-25T01:11:33;2.83;;;1.70;;
63902;SDS011;50072;50.678;13.938;2024-03-25T01:14:05;3.55;;;1.42;;
63902;SDS011;50072;50.678;13.938;2024-03-25T01:16:32;4.57;;;1.30;;
63902;SDS011;50072;50.678;13.938;2024-03-25T01:18:59;6.45;;;1.90;;
63902;SDS011;50072;50.678;13.938;2024-03-25T01:21:25;4.20;;;1.50;;
63902;SDS011;50072;50.678;13.938;2024-03-25T01:23:58;3.40;;;1.92;;
63902;SDS011;50072;50.678;13.938;2024-03-25T01:26:25;3.72;;;1.90;;
63902;SDS011;50072;50.678;13.938;2024-03-25T01:28:52;3.03;;;1.42;;
63902;SDS011;50072;50.678;13.938;2024-03-25T01:31:18;3.60;;;2.00;;
63902;SDS011;50072;50.678;13.938;2024-03-25T01:33:47;2.25;;;1.30;;
63902;SDS011;50072;50.678;13.938;2024-03-25T01:36:13;2.45;;;1.50;;
63902;SDS011;50072;50.678;13.938;2024-03-25T01:38:49;2.50;;;1.67;;
63902;SDS011;50072;50.678;13.938;2024-03-25T01:41:21;2.47;;;1.00;;
63902;SDS011;50072;50.678;13.938;2024-03-25T01:44:04;2.50;;;1.45;;
63902;SDS011;50072;50.678;13.938;2024-03-25T01:46:32;6.13;;;1.50;;
63902;SDS011;50072;50.678;13.938;2024-03-25T01:49:00;1.90;;;1.10;;
63902;SDS011;50072;50.678;13.938;2024-03-25T01:51:25;2.17;;;0.80;;
63902;SDS011;50072;50.678;13.938;2024-03-25T01:53:52;2.03;;;1.20;;
63902;SDS011;50072;50.678;13.938;2024-03-25T01:56:32;2.17;;;0.85;;
63902;SDS011;50072;50.678;13.938;2024-03-25T01:58:59;2.60;;;0.85;;
63902;SDS011;50072;50.678;13.938;2024-03-25T02:01:27;2.33;;;1.00;;
63902;SDS011;50072;50.678;13.938;2024-03-25T02:03:56;1.67;;;0.90;;
63902;SDS011;50072;50.678;13.938;2024-03-25T02:06:22;1.40;;;0.85;;
63902;SDS011;50072;50.678;13.938;2024-03-25T02:08:52;4.22;;;0.98;;
63902;SDS011;50072;50.678;13.938;2024-03-25T02:14:15;3.58;;;1.13;;
63902;SDS011;50072;50.678;13.938;2024-03-25T02:16:43;4.07;;;1.05;;
63902;SDS011;50072;50.678;13.938;2024-03-25T02:19:18;1.98;;;0.90;;
63902;SDS011;50072;50.678;13.938;2024-03-25T02:21:49;1.50;;;1.00;;
63902;SDS011;50072;50.678;13.938;2024-03-25T02:24:15;2.45;;;1.08;;
63902;SDS011;50072;50.678;13.938;2024-03-25T02:26:44;2.05;;;1.05;;
63902;SDS011;50072;50.678;13.938;2024-03-25T02:31:44;2.95;;;1.10;;
63902;SDS011;50072;50.678;13.938;2024-03-25T02:34:10;1.80;;;1.20;;
63902;SDS011;50072;50.678;13.938;2024-03-25T02:39:11;1.70;;;1.05;;
63902;SDS011;50072;50.678;13.938;2024-03-25T02:41:37;2.15;;;1.00;;
63902;SDS011;50072;50.678;13.938;2024-03-25T02:44:18;1.73;;;1.08;;
63902;SDS011;50072;50.678;13.938;2024-03-25T02:46:48;1.33;;;0.80;;
63902;SDS011;50072;50.678;13.938;2024-03-25T02:49:16;2.20;;;1.10;;
63902;SDS011;50072;50.678;13.938;2024-03-25T02:51:41;1.92;;;0.80;;
63902;SDS011;50072;50.678;13.938;2024-03-25T02:54:17;1.02;;;0.63;;
63902;SDS011;50072;50.678;13.938;2024-03-25T02:56:49;1.60;;;0.85;;
63902;SDS011;50072;50.678;13.938;2024-03-25T02:59:17;1.45;;;0.90;;
63902;SDS011;50072;50.678;13.938;2024-03-25T03:01:49;2.05;;;0.90;;
63902;SDS011;50072;50.678;13.938;2024-03-25T03:04:18;1.13;;;0.40;;
63902;SDS011;50072;50.678;13.938;2024-03-25T03:06:45;1.45;;;0.60;;
63902;SDS011;50072;50.678;13.938;2024-03-25T03:09:11;1.38;;;0.47;;
63902;SDS011;50072;50.678;13.938;2024-03-25T03:11:37;1.80;;;0.50;;
63902;SDS011;50072;50.678;13.938;2024-03-25T03:14:04;1.40;;;0.88;;
63902;SDS011;50072;50.678;13.938;2024-03-25T03:16:31;0.88;;;0.50;;
63902;SDS011;50072;50.678;13.938;2024-03-25T03:19:03;1.05;;;0.47;;
63902;SDS011;50072;50.678;13.938;2024-03-25T03:21:34;0.77;;;0.60;;
63902;SDS011;50072;50.678;13.938;2024-03-25T03:24:03;1.08;;;0.68;;
63902;SDS011;50072;50.678;13.938;2024-03-25T03:26:30;0.70;;;0.60;;
63902;SDS011;50072;50.678;13.938;2024-03-25T03:29:03;1.65;;;0.73;;
63902;SDS011;50072;50.678;13.938;2024-03-25T03:31:28;1.70;;;0.90;;
63902;SDS011;50072;50.678;13.938;2024-03-25T03:36:31;3.28;;;1.10;;
63902;SDS011;50072;50.678;13.938;2024-03-25T03:39:03;1.92;;;1.10;;
63902;SDS011;50072;50.678;13.938;2024-03-25T03:44:03;1.58;;;0.95;;
63902;SDS011;50072;50.678;13.938;2024-03-25T03:49:12;1.35;;;0.80;;
63902;SDS011;50072;50.678;13.938;2024-03-25T03:51:37;2.85;;;0.80;;
63902;SDS011;50072;50.678;13.938;2024-03-25T03:54:03;2.00;;;0.90;;
63902;SDS011;50072;50.678;13.938;2024-03-25T03:56:35;2.03;;;0.95;;
63902;SDS011;50072;50.678;13.938;2024-03-25T03:59:01;2.58;;;0.80;;
63902;SDS011;50072;50.678;13.938;2024-03-25T04:01:29;1.83;;;0.63;;
63902;SDS011;50072;50.678;13.938;2024-03-25T04:04:03;2.58;;;1.00;;
63902;SDS011;50072;50.678;13.938;2024-03-25T04:06:31;1.55;;;0.90;;
63902;SDS011;50072;50.678;13.938;2024-03-25T04:08:59;1.80;;;1.00;;
63902;SDS011;50072;50.678;13.938;2024-03-25T04:11:25;1.88;;;1.00;;
63902;SDS011;50072;50.678;13.938;2024-03-25T04:13:53;1.65;;;0.77;;
63902;SDS011;50072;50.678;13.938;2024-03-25T04:16:20;2.80;;;1.10;;
63902;SDS011;50072;50.678;13.938;2024-03-25T04:18:48;2.53;;;1.08;;
63902;SDS011;50072;50.678;13.938;2024-03-25T04:21:18;4.03;;;1.20;;
63902;SDS011;50072;50.678;13.938;2024-03-25T04:23:50;2.65;;;1.20;;
63902;SDS011;50072;50.678;13.938;2024-03-25T04:26:17;4.43;;;1.70;;
63902;SDS011;50072;50.678;13.938;2024-03-25T04:28:49;6.15;;;1.92;;
63902;SDS011;50072;50.678;13.938;2024-03-25T04:31:18;3.07;;;1.20;;
63902;SDS011;50072;50.678;13.938;2024-03-25T04:33:44;3.22;;;1.33;;
63902;SDS011;50072;50.678;13.938;2024-03-25T04:36:13;2.10;;;1.25;;
63902;SDS011;50072;50.678;13.938;2024-03-25T04:38:47;5.07;;;1.27;;
63902;SDS011;50072;50.678;13.938;2024-03-25T04:41:15;4.00;;;1.52;;
63902;SDS011;50072;50.678;13.938;2024-03-25T04:43:41;3.33;;;1.45;;
63902;SDS011;50072;50.678;13.938;2024-03-25T04:46:06;4.00;;;1.20;;
63902;SDS011;50072;50.678;13.938;2024-03-25T04:48:35;2.42;;;1.20;;
63902;SDS011;50072;50.678;13.938;2024-03-25T04:51:01;2.83;;;1.27;;
63902;SDS011;50072;50.678;13.938;2024-03-25T04:53:28;5.47;;;1.10;;
63902;SDS011;50072;50.678;13.938;2024-03-25T04:55:56;1.67;;;0.93;;
63902;SDS011;50072;50.678;13.938;2024-03-25T04:58:24;2.92;;;1.27;;
63902;SDS011;50072;50.678;13.938;2024-03-25T05:00:50;2.45;;;1.20;;
63902;SDS011;50072;50.678;13.938;2024-03-25T05:03:16;3.13;;;1.17;;
63902;SDS011;50072;50.678;13.938;2024-03-25T05:05:42;2.95;;;1.20;;
63902;SDS011;50072;50.678;13.938;2024-03-25T05:08:08;4.65;;;1.42;;
63902;SDS011;50072;50.678;13.938;2024-03-25T05:10:35;1.88;;;0.95;;
63902;SDS011;50072;50.678;13.938;2024-03-25T05:13:01;2.05;;;1.00;;
63902;SDS011;50072;50.678;13.938;2024-03-25T05:15:27;3.58;;;1.00;;
63902;SDS011;50072;50.678;13.938;2024-03-25T05:17:53;2.17;;;1.20;;
63902;SDS011;50072;50.678;13.938;2024-03-25T05:20:19;4.20;;;1.23;;
63902;SDS011;50072;50.678;13.938;2024-03-25T05:22:46;3.03;;;1.05;;
63902;SDS011;50072;50.678;13.938;2024-03-25T05:25:11;2.17;;;1.13;;
63902;SDS011;50072;50.678;13.938;2024-03-25T05:27:38;2.53;;;1.15;;
63902;SDS011;50072;50.678;13.938;2024-03-25T05:30:05;3.33;;;1.20;;
63902;SDS011;50072;50.678;13.938;2024-03-25T05:32:32;3.25;;;1.00;;
63902;SDS011;50072;50.678;13.938;2024-03-25T05:34:58;2.15;;;1.13;;
63902;SDS011;50072;50.678;13.938;2024-03-25T05:37:24;3.80;;;1.10;;
63902;SDS011;50072;50.678;13.938;2024-03-25T05:39:50;3.00;;;1.33;;
63902;SDS011;50072;50.678;13.938;2024-03-25T05:42:16;2.10;;;1.20;;
63902;SDS011;50072;50.678;13.938;2024-03-25T05:44:42;3.60;;;1.42;;
63902;SDS011;50072;50.678;13.938;2024-03-25T05:47:11;3.33;;;1.40;;
63902;SDS011;50072;50.678;13.938;2024-03-25T05:49:37;4.50;;;1.77;;
63902;SDS011;50072;50.678;13.938;2024-03-25T05:52:03;2.30;;;1.20;;
63902;SDS011;50072;50.678;13.938;2024-03-25T05:54:29;3.90;;;1.50;;
63902;SDS011;50072;50.678;13.938;2024-03-25T05:56:57;4.30;;;1.55;;
63902;SDS011;50072;50.678;13.938;2024-03-25T05:59:23;6.43;;;1.50;;
63902;SDS011;50072;50.678;13.938;2024-03-25T06:01:49;6.72;;;1.65;;
63902;SDS011;50072;50.678;13.938;2024-03-25T06:04:15;5.45;;;1.55;;
63902;SDS011;50072;50.678;13.938;2024-03-25T06:06:41;3.55;;;1.52;;
63902;SDS011;50072;50.678;13.938;2024-03-25T06:09:09;3.70;;;1.60;;
63902;SDS011;50072;50.678;13.938;2024-03-25T06:11:35;3.25;;;1.30;;
63902;SDS011;50072;50.678;13.938;2024-03-25T06:14:00;4.72;;;1.58;;
63902;SDS011;50072;50.678;13.938;2024-03-25T06:16:26;4.25;;;2.08;;
63902;SDS011;50072;50.678;13.938;2024-03-25T06:18:53;3.55;;;1.90;;
63902;SDS011;50072;50.678;13.938;2024-03-25T06:21:20;7.47;;;1.63;;
63902;SDS011;50072;50.678;13.938;2024-03-25T06:23:47;9.60;;;3.25;;
63902;SDS011;50072;50.678;13.938;2024-03-25T06:26:13;5.97;;;2.03;;
63902;SDS011;50072;50.678;13.938;2024-03-25T06:28:38;6.38;;;2.30;;
63902;SDS011;50072;50.678;13.938;2024-03-25T06:31:05;4.35;;;1.65;;
63902;SDS011;50072;50.678;13.938;2024-03-25T06:33:49;15.80;;;4.80;;
63902;SDS011;50072;50.678;13.938;2024-03-25T06:36:35;12.77;;;4.57;;
63902;SDS011;50072;50.678;13.938;2024-03-25T06:39:01;8.13;;;3.17;;
63902;SDS011;50072;50.678;13.938;2024-03-25T06:41:27;13.02;;;4.13;;
63902;SDS011;50072;50.678;13.938;2024-03-25T06:43:53;15.32;;;5.10;;
63902;SDS011;50072;50.678;13.938;2024-03-25T06:46:19;13.63;;;4.60;;
63902;SDS011;50072;50.678;13.938;2024-03-25T06:48:45;6.45;;;3.03;;
63902;SDS011;50072;50.678;13.938;2024-03-25T06:51:12;6.97;;;2.28;;
63902;SDS011;50072;50.678;13.938;2024-03-25T06:53:38;4.43;;;1.85;;
63902;SDS011;50072;50.678;13.938;2024-03-25T06:56:04;4.05;;;1.25;;
63902;SDS011;50072;50.678;13.938;2024-03-25T06:58:31;5.38;;;1.73;;
63902;SDS011;50072;50.678;13.938;2024-03-25T07:01:03;4.00;;;1.85;;
63902;SDS011;50072;50.678;13.938;2024-03-25T07:03:31;3.55;;;1.98;;
63902;SDS011;50072;50.678;13.938;2024-03-25T07:05:59;4.38;;;1.88;;
63902;SDS011;50072;50.678;13.938;2024-03-25T07:08:29;3.00;;;1.77;;
63902;SDS011;50072;50.678;13.938;2024-03-25T07:10:56;4.45;;;1.65;;
63902;SDS011;50072;50.678;13.938;2024-03-25T07:13:24;3.10;;;1.42;;
63902;SDS011;50072;50.678;13.938;2024-03-25T07:15:50;4.78;;;1.80;;
63902;SDS011;50072;50.678;13.938;2024-03-25T07:18:17;2.95;;;1.90;;
63902;SDS011;50072;50.678;13.938;2024-03-25T07:20:43;2.50;;;1.35;;
63902;SDS011;50072;50.678;13.938;2024-03-25T07:23:09;3.28;;;1.85;;
63902;SDS011;50072;50.678;13.938;2024-03-25T07:25:37;2.75;;;1.70;;
63902;SDS011;50072;50.678;13.938;2024-03-25T07:28:03;5.80;;;1.75;;
63902;SDS011;50072;50.678;13.938;2024-03-25T07:30:30;4.13;;;1.77;;
63902;SDS011;50072;50.678;13.938;2024-03-25T07:32:57;5.78;;;1.85;;
63902;SDS011;50072;50.678;13.938;2024-03-25T07:35:24;4.63;;;1.95;;
63902;SDS011;50072;50.678;13.938;2024-03-25T07:37:50;3.88;;;1.70;;
63902;SDS011;50072;50.678;13.938;2024-03-25T07:40:21;5.28;;;1.83;;
63902;SDS011;50072;50.678;13.938;2024-03-25T07:42:48;3.35;;;1.38;;
63902;SDS011;50072;50.678;13.938;2024-03-25T07:45:15;3.95;;;2.03;;
63902;SDS011;50072;50.678;13.938;2024-03-25T07:47:43;5.07;;;1.98;;
63902;SDS011;50072;50.678;13.938;2024-03-25T07:50:09;3.10;;;1.55;;
63902;SDS011;50072;50.678;13.938;2024-03-25T07:52:35;5.43;;;1.38;;
63902;SDS011;50072;50.678;13.938;2024-03-25T07:55:07;3.08;;;1.50;;
63902;SDS011;50072;50.678;13.938;2024-03-25T07:57:34;2.17;;;1.20;;
63902;SDS011;50072;50.678;13.938;2024-03-25T08:05:20;1.98;;;1.10;;
63902;SDS011;50072;50.678;13.938;2024-03-25T08:07:47;2.13;;;1.20;;
63902;SDS011;50072;50.678;13.938;2024-03-25T08:10:14;3.45;;;1.50;;
63902;SDS011;50072;50.678;13.938;2024-03-25T08:12:40;3.85;;;1.35;;
63902;SDS011;50072;50.678;13.938;2024-03-25T08:15:12;2.63;;;1.50;;
63902;SDS011;50072;50.678;13.938;2024-03-25T08:17:43;3.10;;;1.52;;
63902;SDS011;50072;50.678;13.938;2024-03-25T08:20:09;6.18;;;2.47;;
63902;SDS011;50072;50.678;13.938;2024-03-25T08:22:36;3.28;;;1.50;;
63902;SDS011;50072;50.678;13.938;2024-03-25T08:25:03;4.78;;;1.73;;
63902;SDS011;50072;50.678;13.938;2024-03-25T08:27:33;3.47;;;1.40;;
63902;SDS011;50072;50.678;13.938;2024-03-25T08:30:01;4.32;;;1.80;;
63902;SDS011;50072;50.678;13.938;2024-03-25T08:32:28;2.38;;;1.52;;
63902;SDS011;50072;50.678;13.938;2024-03-25T08:34:54;2.25;;;1.50;;
63902;SDS011;50072;50.678;13.938;2024-03-25T08:37:24;4.47;;;2.13;;
63902;SDS011;50072;50.678;13.938;2024-03-25T08:39:50;3.72;;;2.47;;
63902;SDS011;50072;50.678;13.938;2024-03-25T08:42:16;4.72;;;2.10;;
63902;SDS011;50072;50.678;13.938;2024-03-25T08:47:13;5.50;;;2.35;;
63902;SDS011;50072;50.678;13.938;2024-03-25T08:49:39;3.45;;;1.92;;
63902;SDS011;50072;50.678;13.938;2024-03-25T08:52:05;6.40;;;2.78;;
63902;SDS011;50072;50.678;13.938;2024-03-25T08:54:37;5.78;;;2.33;;
63902;SDS011;50072;50.678;13.938;2024-03-25T09:02:03;3.38;;;1.58;;
63902;SDS011;50072;50.678;13.938;2024-03-25T09:04:30;6.32;;;2.08;;
63902;SDS011;50072;50.678;13.938;2024-03-25T09:06:57;4.03;;;1.52;;
63902;SDS011;50072;50.678;13.938;2024-03-25T09:12:11;4.88;;;2.28;;
63902;SDS011;50072;50.678;13.938;2024-03-25T09:17:08;5.93;;;2.10;;
63902;SDS011;50072;50.678;13.938;2024-03-25T09:19:35;7.35;;;2.78;;
63902;SDS011;50072;50.678;13.938;2024-03-25T09:22:02;12.77;;;5.30;;
63902;SDS011;50072;50.678;13.938;2024-03-25T09:24:28;4.65;;;2.28;;
63902;SDS011;50072;50.678;13.938;2024-03-25T09:26:55;4.90;;;2.22;;
63902;SDS011;50072;50.678;13.938;2024-03-25T09:29:21;6.93;;;2.35;;
63902;SDS011;50072;50.678;13.938;2024-03-25T09:31:47;7.50;;;3.60;;
63902;SDS011;50072;50.678;13.938;2024-03-25T09:34:14;7.05;;;3.15;;
63902;SDS011;50072;50.678;13.938;2024-03-25T09:36:40;5.00;;;2.00;;
63902;SDS011;50072;50.678;13.938;2024-03-25T09:39:07;3.83;;;2.25;;
63902;SDS011;50072;50.678;13.938;2024-03-25T09:41:35;4.90;;;1.90;;
63902;SDS011;50072;50.678;13.938;2024-03-25T09:44:03;6.63;;;3.10;;
63902;SDS011;50072;50.678;13.938;2024-03-25T09:46:31;5.07;;;2.50;;
63902;SDS011;50072;50.678;13.938;2024-03-25T09:48:59;5.18;;;2.50;;
63902;SDS011;50072;50.678;13.938;2024-03-25T09:51:26;10.23;;;3.67;;
63902;SDS011;50072;50.678;13.938;2024-03-25T09:53:56;8.45;;;3.28;;
63902;SDS011;50072;50.678;13.938;2024-03-25T09:56:25;6.32;;;2.80;;
63902;SDS011;50072;50.678;13.938;2024-03-25T09:59:03;4.78;;;2.63;;
63902;SDS011;50072;50.678;13.938;2024-03-25T10:01:33;3.42;;;1.55;;
63902;SDS011;50072;50.678;13.938;2024-03-25T10:04:07;4.25;;;1.85;;
63902;SDS011;50072;50.678;13.938;2024-03-25T10:06:33;4.30;;;1.92;;
63902;SDS011;50072;50.678;13.938;2024-03-25T10:08:59;5.05;;;2.03;;
63902;SDS011;50072;50.678;13.938;2024-03-25T10:11:34;2.80;;;1.90;;
63902;SDS011;50072;50.678;13.938;2024-03-25T10:16:33;7.22;;;2.83;;
63902;SDS011;50072;50.678;13.938;2024-03-25T10:26:48;4.10;;;2.03;;
63902;SDS011;50072;50.678;13.938;2024-03-25T10:29:20;6.18;;;1.85;;
63902;SDS011;50072;50.678;13.938;2024-03-25T10:31:58;8.15;;;3.08;;
63902;SDS011;50072;50.678;13.938;2024-03-25T10:34:29;6.43;;;3.20;;
63902;SDS011;50072;50.678;13.938;2024-03-25T10:37:03;2.42;;;1.63;;
63902;SDS011;50072;50.678;13.938;2024-03-25T10:42:03;6.55;;;2.97;;
63902;SDS011;50072;50.678;13.938;2024-03-25T10:47:21;4.40;;;2.10;;
63902;SDS011;50072;50.678;13.938;2024-03-25T10:50:06;3.65;;;1.55;;
63902;SDS011;50072;50.678;13.938;2024-03-25T10:52:36;3.40;;;1.63;;
63902;SDS011;50072;50.678;13.938;2024-03-25T10:55:18;3.35;;;1.65;;
63902;SDS011;50072;50.678;13.938;2024-03-25T10:57:45;2.80;;;1.35;;
63902;SDS011;50072;50.678;13.938;2024-03-25T11:00:18;4.05;;;1.95;;
63902;SDS011;50072;50.678;13.938;2024-03-25T11:02:48;5.00;;;2.38;;
63902;SDS011;50072;50.678;13.938;2024-03-25T11:05:17;3.60;;;1.70;;
63902;SDS011;50072;50.678;13.938;2024-03-25T11:07:43;9.60;;;3.70;;
63902;SDS011;50072;50.678;13.938;2024-03-25T11:10:10;3.60;;;1.60;;
63902;SDS011;50072;50.678;13.938;2024-03-25T11:12:38;4.50;;;2.10;;
63902;SDS011;50072;50.678;13.938;2024-03-25T11:15:07;4.40;;;2.15;;
63902;SDS011;50072;50.678;13.938;2024-03-25T11:17:34;5.45;;;2.92;;
63902;SDS011;50072;50.678;13.938;2024-03-25T11:20:10;3.92;;;2.20;;
63902;SDS011;50072;50.678;13.938;2024-03-25T11:22:48;3.72;;;2.40;;
63902;SDS011;50072;50.678;13.938;2024-03-25T11:25:16;4.72;;;2.28;;
63902;SDS011;50072;50.678;13.938;2024-03-25T11:27:43;3.42;;;2.10;;
63902;SDS011;50072;50.678;13.938;2024-03-25T11:30:11;2.60;;;1.88;;
63902;SDS011;50072;50.678;13.938;2024-03-25T11:32:51;2.58;;;1.60;;
63902;SDS011;50072;50.678;13.938;2024-03-25T11:35:18;3.38;;;1.88;;
63902;SDS011;50072;50.678;13.938;2024-03-25T11:37:45;2.25;;;1.60;;
63902;SDS011;50072;50.678;13.938;2024-03-25T11:40:13;3.17;;;1.73;;
63902;SDS011;50072;50.678;13.938;2024-03-25T11:42:41;2.95;;;1.35;;
63902;SDS011;50072;50.678;13.938;2024-03-25T11:45:15;3.65;;;1.38;;
63902;SDS011;50072;50.678;13.938;2024-03-25T11:47:43;2.17;;;1.30;;
63902;SDS011;50072;50.678;13.938;2024-03-25T11:50:13;4.03;;;1.88;;
63902;SDS011;50072;50.678;13.938;2024-03-25T11:52:41;6.60;;;3.05;;
63902;SDS011;50072;50.678;13.938;2024-03-25T11:55:08;3.47;;;1.90;;
63902;SDS011;50072;50.678;13.938;2024-03-25T11:57:35;4.43;;;2.03;;
63902;SDS011;50072;50.678;13.938;2024-03-25T12:00:02;3.25;;;1.38;;
63902;SDS011;50072;50.678;13.938;2024-03-25T12:02:31;2.75;;;1.10;;
63902;SDS011;50072;50.678;13.938;2024-03-25T12:04:58;2.08;;;0.98;;
63902;SDS011;50072;50.678;13.938;2024-03-25T12:07:26;4.22;;;0.93;;
63902;SDS011;50072;50.678;13.938;2024-03-25T12:09:52;1.20;;;0.90;;
63902;SDS011;50072;50.678;13.938;2024-03-25T12:12:36;3.03;;;1.35;;
63902;SDS011;50072;50.678;13.938;2024-03-25T12:15:05;2.83;;;1.00;;
63902;SDS011;50072;50.678;13.938;2024-03-25T12:17:33;2.53;;;1.23;;
63902;SDS011;50072;50.678;13.938;2024-03-25T12:20:01;17.92;;;4.32;;
63902;SDS011;50072;50.678;13.938;2024-03-25T12:22:32;11.85;;;3.30;;
63902;SDS011;50072;50.678;13.938;2024-03-25T12:24:59;15.98;;;4.35;;
63902;SDS011;50072;50.678;13.938;2024-03-25T12:27:31;3.00;;;1.20;;
63902;SDS011;50072;50.678;13.938;2024-03-25T12:30:05;11.52;;;3.00;;
63902;SDS011;50072;50.678;13.938;2024-03-25T12:32:36;1.98;;;1.20;;
63902;SDS011;50072;50.678;13.938;2024-03-25T12:35:13;3.30;;;1.13;;
63902;SDS011;50072;50.678;13.938;2024-03-25T12:37:44;3.10;;;1.20;;
63902;SDS011;50072;50.678;13.938;2024-03-25T12:40:29;5.07;;;2.08;;
63902;SDS011;50072;50.678;13.938;2024-03-25T12:42:58;3.13;;;1.10;;
63902;SDS011;50072;50.678;13.938;2024-03-25T12:45:25;3.75;;;1.40;;
63902;SDS011;50072;50.678;13.938;2024-03-25T12:47:51;2.38;;;1.42;;
63902;SDS011;50072;50.678;13.938;2024-03-25T12:50:18;6.47;;;2.80;;
63902;SDS011;50072;50.678;13.938;2024-03-25T12:52:44;3.28;;;1.40;;
63902;SDS011;50072;50.678;13.938;2024-03-25T12:55:10;2.85;;;1.30;;
63902;SDS011;50072;50.678;13.938;2024-03-25T12:57:36;2.58;;;1.10;;
63902;SDS011;50072;50.678;13.938;2024-03-25T13:00:02;1.92;;;1.02;;
63902;SDS011;50072;50.678;13.938;2024-03-25T13:02:30;12.30;;;4.25;;
63902;SDS011;50072;50.678;13.938;2024-03-25T13:04:59;25.23;;;8.50;;
63902;SDS011;50072;50.678;13.938;2024-03-25T13:07:25;23.55;;;8.13;;
63902;SDS011;50072;50.678;13.938;2024-03-25T13:09:51;29.88;;;13.30;;
63902;SDS011;50072;50.678;13.938;2024-03-25T13:12:18;22.38;;;10.88;;
63902;SDS011;50072;50.678;13.938;2024-03-25T13:14:45;37.88;;;16.30;;
63902;SDS011;50072;50.678;13.938;2024-03-25T13:17:11;25.27;;;10.63;;
63902;SDS011;50072;50.678;13.938;2024-03-25T13:19:39;18.00;;;6.57;;
63902;SDS011;50072;50.678;13.938;2024-03-25T13:22:05;56.90;;;21.15;;
63902;SDS011;50072;50.678;13.938;2024-03-25T13:24:32;35.72;;;16.65;;
63902;SDS011;50072;50.678;13.938;2024-03-25T13:26:57;6.15;;;2.95;;
63902;SDS011;50072;50.678;13.938;2024-03-25T13:29:26;13.65;;;6.38;;
63902;SDS011;50072;50.678;13.938;2024-03-25T13:31:52;6.55;;;3.03;;
63902;SDS011;50072;50.678;13.938;2024-03-25T13:34:19;3.00;;;1.42;;
63902;SDS011;50072;50.678;13.938;2024-03-25T13:36:45;5.82;;;2.97;;
63902;SDS011;50072;50.678;13.938;2024-03-25T13:39:13;6.85;;;4.05;;
63902;SDS011;50072;50.678;13.938;2024-03-25T13:41:39;10.65;;;6.22;;
63902;SDS011;50072;50.678;13.938;2024-03-25T13:44:05;4.28;;;1.20;;
63902;SDS011;50072;50.678;13.938;2024-03-25T13:46:31;2.40;;;1.10;;
63902;SDS011;50072;50.678;13.938;2024-03-25T13:48:58;2.50;;;1.10;;
63902;SDS011;50072;50.678;13.938;2024-03-25T13:51:25;2.08;;;1.20;;
63902;SDS011;50072;50.678;13.938;2024-03-25T13:53:53;2.53;;;1.10;;
63902;SDS011;50072;50.678;13.938;2024-03-25T13:56:20;2.55;;;1.20;;
63902;SDS011;50072;50.678;13.938;2024-03-25T13:58:47;2.25;;;1.27;;
63902;SDS011;50072;50.678;13.938;2024-03-25T14:01:13;3.53;;;1.10;;
63902;SDS011;50072;50.678;13.938;2024-03-25T14:03:41;3.03;;;1.13;;
63902;SDS011;50072;50.678;13.938;2024-03-25T14:06:07;2.72;;;1.25;;
63902;SDS011;50072;50.678;13.938;2024-03-25T14:08:35;4.07;;;1.30;;
63902;SDS011;50072;50.678;13.938;2024-03-25T14:11:01;5.30;;;1.40;;
63902;SDS011;50072;50.678;13.938;2024-03-25T14:13:28;2.35;;;1.17;;
63902;SDS011;50072;50.678;13.938;2024-03-25T14:15:54;3.55;;;1.30;;
63902;SDS011;50072;50.678;13.938;2024-03-25T14:18:21;4.25;;;1.95;;
63902;SDS011;50072;50.678;13.938;2024-03-25T14:20:46;5.65;;;2.80;;
63902;SDS011;50072;50.678;13.938;2024-03-25T14:23:13;4.22;;;2.78;;
63902;SDS011;50072;50.678;13.938;2024-03-25T14:25:40;4.50;;;1.85;;
63902;SDS011;50072;50.678;13.938;2024-03-25T14:28:06;2.53;;;1.67;;
63902;SDS011;50072;50.678;13.938;2024-03-25T14:30:32;2.50;;;0.70;;
63902;SDS011;50072;50.678;13.938;2024-03-25T14:32:58;2.22;;;1.15;;
63902;SDS011;50072;50.678;13.938;2024-03-25T14:35:24;1.80;;;1.00;;
63902;SDS011;50072;50.678;13.938;2024-03-25T14:37:51;1.77;;;0.90;;
63902;SDS011;50072;50.678;13.938;2024-03-25T14:40:18;1.70;;;0.90;;
63902;SDS011;50072;50.678;13.938;2024-03-25T14:42:44;2.47;;;1.00;;
63902;SDS011;50072;50.678;13.938;2024-03-25T14:45:10;2.72;;;0.95;;
63902;SDS011;50072;50.678;13.938;2024-03-25T14:47:37;2.50;;;1.00;;
63902;SDS011;50072;50.678;13.938;2024-03-25T14:50:03;1.23;;;0.80;;
63902;SDS011;50072;50.678;13.938;2024-03-25T14:52:31;2.05;;;0.95;;
63902;SDS011;50072;50.678;13.938;2024-03-25T14:54:57;5.90;;;2.35;;
63902;SDS011;50072;50.678;13.938;2024-03-25T14:57:25;13.73;;;4.05;;
63902;SDS011;50072;50.678;13.938;2024-03-25T14:59:51;4.65;;;1.63;;
63902;SDS011;50072;50.678;13.938;2024-03-25T15:02:17;6.28;;;1.98;;
63902;SDS011;50072;50.678;13.938;2024-03-25T15:04:43;4.32;;;1.50;;
63902;SDS011;50072;50.678;13.938;2024-03-25T15:07:13;21.75;;;6.45;;
63902;SDS011;50072;50.678;13.938;2024-03-25T15:09:40;11.75;;;4.28;;
63902;SDS011;50072;50.678;13.938;2024-03-25T15:12:07;6.45;;;2.15;;
63902;SDS011;50072;50.678;13.938;2024-03-25T15:14:33;6.30;;;2.20;;
63902;SDS011;50072;50.678;13.938;2024-03-25T15:17:02;19.50;;;6.25;;
63902;SDS011;50072;50.678;13.938;2024-03-25T15:19:28;21.27;;;7.80;;
63902;SDS011;50072;50.678;13.938;2024-03-25T15:21:55;8.60;;;2.75;;
63902;SDS011;50072;50.678;13.938;2024-03-25T15:24:21;9.75;;;2.50;;
63902;SDS011;50072;50.678;13.938;2024-03-25T15:26:48;13.68;;;4.20;;
63902;SDS011;50072;50.678;13.938;2024-03-25T15:29:14;7.55;;;1.90;;
63902;SDS011;50072;50.678;13.938;2024-03-25T15:31:40;2.67;;;1.15;;